createdAt,value
2018-07-31T00:07:25.671Z,21.7
2018-07-31T00:17:24.917Z,21.6
2018-07-31T00:27:24.160Z,21.6
2018-07-31T00:37:23.407Z,21.6
2018-07-31T00:47:22.652Z,21.8
2018-07-31T00:57:21.891Z,21.8
2018-07-31T01:07:21.135Z,21.9
2018-07-31T01:17:20.377Z,22
2018-07-31T01:27:19.620Z,22
2018-07-31T01:37:18.864Z,22.1
2018-07-31T01:47:18.113Z,22.1
2018-07-31T01:57:17.349Z,22.1
2018-07-31T02:07:16.595Z,22
2018-07-31T02:17:15.845Z,21.9
2018-07-31T02:27:15.078Z,21.9
2018-07-31T02:37:14.322Z,21.9
2018-07-31T02:47:13.573Z,22.1
2018-07-31T02:57:12.812Z,22.1
2018-07-31T03:07:12.054Z,22.1
2018-07-31T03:17:11.297Z,22
2018-07-31T03:27:10.543Z,21.9
2018-07-31T03:37:09.786Z,21.9
2018-07-31T03:47:09.032Z,21.9
2018-07-31T03:57:08.271Z,21.9
2018-07-31T04:07:07.515Z,22
2018-07-31T04:17:06.907Z,22.1
2018-07-31T04:27:06.004Z,22.3
2018-07-31T04:37:05.247Z,22.4
2018-07-31T04:47:04.492Z,22.5
2018-07-31T04:57:03.743Z,22.7
2018-07-31T05:07:02.978Z,22.8
2018-07-31T05:17:02.224Z,22.8
2018-07-31T05:27:01.473Z,22.8
2018-07-31T05:37:00.708Z,22.8
2018-07-31T05:46:59.951Z,22.6
2018-07-31T05:56:59.195Z,22.6
2018-07-31T06:06:58.437Z,22.6
2018-07-31T06:16:57.681Z,22.8
2018-07-31T06:26:56.939Z,23
2018-07-31T06:36:56.209Z,23.5
2018-07-31T06:46:55.418Z,24.1
2018-07-31T06:56:54.654Z,24.2
2018-07-31T07:06:53.897Z,24.5
2018-07-31T07:16:53.142Z,24.6
2018-07-31T07:26:52.388Z,25
2018-07-31T07:36:51.630Z,25
2018-07-31T07:46:50.871Z,24.9
2018-07-31T07:56:50.116Z,25.1
2018-07-31T08:06:49.362Z,25.6
2018-07-31T08:16:48.601Z,26.1
2018-07-31T08:26:47.844Z,26.4
